Time;durP1;ratioP1;P1;durP2;ratioP2;P2;SDS_P1;SDS_P2;PMS_P1;PMS_P2;Temp;Humidity;BMP_temperature;BMP_pressure;BME280_temperature;BME280_humidity;BME280_pressure;Samples;Min_cycle;Max_cycle;Signal;HPM_P1;HPM_P2
2023/01/06 00:01:28;;;;;;;1999.90;999.90;;;;;;;9.02;100.00;94805.63;5096094;28;20245;-62
2023/01/06 00:03:57;;;;;;;1999.90;999.90;;;;;;;9.02;100.00;94811.06;5095240;28;20189;-62
2023/01/06 00:06:27;;;;;;;1999.90;999.90;;;;;;;9.01;100.00;94792.41;5095540;28;20234;-62
2023/01/06 00:08:59;;;;;;;1999.90;999.90;;;;;;;8.98;100.00;94791.28;5094953;28;20168;-61
2023/01/06 00:11:25;;;;;;;1999.90;999.90;;;;;;;8.96;100.00;94766.41;5094987;28;20191;-62
2023/01/06 00:13:50;;;;;;;1999.90;999.90;;;;;;;8.94;100.00;94770.72;5094863;28;20208;-62
2023/01/06 00:16:18;;;;;;;1999.90;999.90;;;;;;;8.92;100.00;94765.66;5095222;28;20169;-62
2023/01/06 00:18:44;;;;;;;1999.90;999.90;;;;;;;8.90;100.00;94754.44;5095567;28;20173;-62
2023/01/06 00:21:11;;;;;;;1999.90;999.90;;;;;;;8.87;100.00;94759.91;5095042;28;20169;-61
2023/01/06 00:23:37;;;;;;;1999.90;999.90;;;;;;;8.85;100.00;94745.94;5095414;28;20175;-62
2023/01/06 00:26:04;;;;;;;1999.90;999.90;;;;;;;8.86;100.00;94740.06;5095452;28;20173;-64
2023/01/06 00:28:29;;;;;;;1999.90;999.90;;;;;;;8.85;100.00;94740.50;5094827;28;20205;-60
2023/01/06 00:30:55;;;;;;;1999.90;999.90;;;;;;;8.85;100.00;94718.72;5094678;28;20220;-61
2023/01/06 00:33:20;;;;;;;1999.90;999.90;;;;;;;8.85;100.00;94722.19;5094551;28;20200;-61
2023/01/06 00:35:45;;;;;;;1999.90;999.90;;;;;;;8.79;100.00;94715.69;5095224;28;20183;-62
2023/01/06 00:38:11;;;;;;;1999.90;999.90;;;;;;;8.78;100.00;94708.66;5094612;28;20195;-61
2023/01/06 00:40:37;;;;;;;1999.90;999.90;;;;;;;8.79;100.00;94704.78;5095134;28;20496;-61
2023/01/06 00:43:03;;;;;;;1999.90;999.90;;;;;;;8.78;100.00;94692.34;5094767;28;20176;-61
2023/01/06 00:45:29;;;;;;;1999.90;999.90;;;;;;;8.80;100.00;94698.16;5094648;28;20218;-61
2023/01/06 00:47:54;;;;;;;1999.90;999.90;;;;;;;8.81;100.00;94701.63;5094542;28;20223;-64
2023/01/06 00:50:20;;;;;;;1999.90;999.90;;;;;;;8.81;100.00;94696.97;5095114;28;20173;-75
2023/01/06 00:52:47;;;;;;;1999.90;999.90;;;;;;;8.80;100.00;94690.00;5093597;28;20246;-74
2023/01/06 00:55:12;;;;;;;1999.90;999.90;;;;;;;8.81;100.00;94691.53;5094142;28;20168;-74
2023/01/06 00:57:38;;;;;;;1999.90;999.90;;;;;;;8.81;100.00;94680.63;5094590;28;20194;-72
2023/01/06 01:00:04;;;;;;;1999.90;999.90;;;;;;;8.77;100.00;94690.03;5094822;28;20172;-75
2023/01/06 01:02:30;;;;;;;1999.90;999.90;;;;;;;8.73;100.00;94675.69;5093911;28;20227;-75
2023/01/06 01:04:55;;;;;;;1999.90;999.90;;;;;;;8.70;100.00;94680.00;5094225;28;20196;-60
2023/01/06 01:07:20;;;;;;;1999.90;999.90;;;;;;;8.66;100.00;94673.06;5094027;28;20210;-61
2023/01/06 01:09:46;;;;;;;1999.90;999.90;;;;;;;8.63;100.00;94669.19;5094282;28;20168;-61
2023/01/06 01:12:11;;;;;;;1999.90;999.90;;;;;;;8.59;100.00;94673.91;5093903;28;20206;-61
2023/01/06 01:14:48;;;;;;;1999.90;999.90;;;;;;;8.56;100.00;94674.72;5094730;28;20173;-61
2023/01/06 01:17:18;;;;;;;1999.90;999.90;;;;;;;8.50;100.00;94670.94;5094407;28;20176;-60
2023/01/06 01:19:44;;;;;;;1999.90;999.90;;;;;;;8.42;100.00;94666.72;5094013;28;20168;-61
2023/01/06 01:22:09;;;;;;;1999.90;999.90;;;;;;;8.37;100.00;94667.19;5093866;28;20175;-74
2023/01/06 01:24:35;;;;;;;1999.90;999.90;;;;;;;8.33;100.00;94665.69;5093905;28;20175;-60
2023/01/06 01:27:00;;;;;;;1999.90;999.90;;;;;;;8.27;100.00;94668.09;5094050;28;20206;-61
2023/01/06 01:29:26;;;;;;;1999.90;999.90;;;;;;;8.22;100.00;94665.03;5093917;28;20210;-61
2023/01/06 01:31:52;;;;;;;1999.90;999.90;;;;;;;8.18;100.00;94680.59;5093568;28;20212;-61
2023/01/06 01:34:18;;;;;;;1999.90;999.90;;;;;;;8.10;100.00;94679.91;5093862;28;20183;-60
2023/01/06 01:36:46;;;;;;;1999.90;999.90;;;;;;;8.05;100.00;94677.63;5093879;28;20179;-62
2023/01/06 01:39:14;;;;;;;1999.90;999.90;;;;;;;7.99;100.00;94679.25;5094272;28;20173;-60
2023/01/06 01:41:39;;;;;;;1999.90;999.90;;;;;;;7.95;100.00;94669.59;5093509;28;20203;-60
2023/01/06 01:44:42;;;;;;;1999.90;999.90;;;;;;;7.90;100.00;94676.22;5093611;28;20272;-67
2023/01/06 01:47:10;;;;;;;1999.90;999.90;;;;;;;7.84;100.00;94672.41;5093598;28;20211;-67
2023/01/06 01:49:39;;;;;;;1999.90;999.90;;;;;;;7.79;100.00;94672.06;5093512;28;20199;-66
2023/01/06 01:52:07;;;;;;;1999.90;999.90;;;;;;;7.75;100.00;94666.66;5093464;28;20215;-66
2023/01/06 01:54:35;;;;;;;1999.90;999.90;;;;;;;7.73;100.00;94660.09;5093613;28;20178;-65
2023/01/06 01:57:36;;;;;;;1999.90;999.90;;;;;;;7.67;100.00;94667.91;5093694;28;20173;-66
2023/01/06 02:00:05;;;;;;;1999.90;999.90;;;;;;;7.62;100.00;94657.47;5093965;28;20222;-63
2023/01/06 02:02:31;;;;;;;1999.90;999.90;;;;;;;7.60;100.00;94661.75;5093491;28;20176;-60
2023/01/06 02:04:59;;;;;;;1999.90;999.90;;;;;;;7.56;100.00;94653.66;5094822;28;20195;-61
2023/01/06 02:07:25;;;;;;;1999.90;999.90;;;;;;;7.51;100.00;94648.66;5097297;28;20207;-61
2023/01/06 02:10:06;;;;;;;1999.90;999.90;;;;;;;7.48;100.00;94645.97;5098047;28;20258;-61
2023/01/06 02:12:32;;;;;;;1999.90;999.90;;;;;;;7.47;100.00;94642.47;5097280;28;20224;-60
2023/01/06 02:14:57;;;;;;;1999.90;999.90;;;;;;;7.45;100.00;94633.16;5097943;28;20187;-60
2023/01/06 02:17:40;;;;;;;1999.90;999.90;;;;;;;7.40;100.00;94623.53;5097149;28;20207;-60
2023/01/06 02:20:30;;;;;;;1999.90;999.90;;;;;;;7.35;100.00;94618.50;5097646;28;20198;-61
2023/01/06 02:23:04;;;;;;;1999.90;999.90;;;;;;;7.33;100.00;94620.88;5098254;28;20172;-67
2023/01/06 02:25:57;;;;;;;1999.90;999.90;;;;;;;7.29;100.00;94614.72;5097184;28;20174;-66
2023/01/06 02:28:35;;;;;;;1999.90;999.90;;;;;;;7.25;100.00;94619.38;5097454;28;20236;-66
2023/01/06 02:31:00;;;;;;;1999.90;999.90;;;;;;;7.17;100.00;94617.13;5097523;28;20242;-66
2023/01/06 02:33:42;;;;;;;1999.90;999.90;;;;;;;7.11;100.00;94608.66;5097283;28;20239;-66
2023/01/06 02:36:19;;;;;;;1999.90;999.90;;;;;;;7.05;100.00;94598.59;5097651;28;20179;-61
2023/01/06 02:39:09;;;;;;;1999.90;999.90;;;;;;;7.01;100.00;94609.50;5096723;28;20283;-61
2023/01/06 02:41:45;;;;;;;1999.90;999.90;;;;;;;6.99;100.00;94595.53;5096613;28;20174;-61
2023/01/06 02:44:10;;;;;;;1999.90;999.90;;;;;;;6.94;100.00;94601.41;5097557;28;20178;-61
2023/01/06 02:46:45;;;;;;;1999.90;999.90;;;;;;;6.88;100.00;94595.63;5097342;28;20175;-61
2023/01/06 02:49:13;;;;;;;1999.90;999.90;;;;;;;6.84;100.00;94584.03;5097523;28;20171;-61
2023/01/06 02:51:49;;;;;;;1999.90;999.90;;;;;;;6.79;100.00;94580.97;5096742;28;20178;-61
2023/01/06 02:54:21;;;;;;;1999.90;999.90;;;;;;;6.70;100.00;94577.91;5096544;28;20274;-61
2023/01/06 02:56:53;;;;;;;1999.90;999.90;;;;;;;6.64;100.00;94584.94;5096954;28;20215;-60
2023/01/06 02:59:31;;;;;;;1999.90;999.90;;;;;;;6.59;100.00;94571.78;5096383;28;20270;-63
2023/01/06 03:01:58;;;;;;;1999.90;999.90;;;;;;;6.57;100.00;94585.00;5097056;28;20186;-63
2023/01/06 03:04:33;;;;;;;1999.90;999.90;;;;;;;6.56;100.00;94569.91;5096569;28;20205;-63
2023/01/06 03:07:02;;;;;;;1999.90;999.90;;;;;;;6.50;100.00;94568.78;5096318;28;20178;-64
2023/01/06 03:09:33;;;;;;;1999.90;999.90;;;;;;;6.44;100.00;94559.50;5096480;28;20178;-63
2023/01/06 03:12:00;;;;;;;1999.90;999.90;;;;;;;6.41;100.00;94571.16;5096820;28;20222;-63
2023/01/06 03:14:40;;;;;;;1999.90;999.90;;;;;;;6.38;100.00;94561.09;5096389;28;20174;-60
2023/01/06 03:17:06;;;;;;;1999.90;999.90;;;;;;;6.34;100.00;94561.09;5096049;28;20181;-60
2023/01/06 03:19:32;;;;;;;1999.90;999.90;;;;;;;6.29;100.00;94563.47;5096315;28;20183;-59
2023/01/06 03:21:59;;;;;;;1999.90;999.90;;;;;;;6.31;100.00;94561.13;5096613;28;20182;-60
2023/01/06 03:24:25;;;;;;;1999.90;999.90;;;;;;;6.28;100.00;94551.88;5096578;28;20178;-59
2023/01/06 03:26:52;;;;;;;1999.90;999.90;;;;;;;6.26;100.00;94551.47;5096191;28;20181;-60
2023/01/06 03:29:19;;;;;;;1999.90;999.90;;;;;;;6.23;100.00;94543.38;5096070;28;20182;-60
2023/01/06 03:32:20;;;;;;;1999.90;999.90;;;;;;;6.21;100.00;94540.28;5095973;28;20253;-61
2023/01/06 03:35:12;;;;;;;1999.90;999.90;;;;;;;6.22;100.00;94530.97;5057903;28;20309;-59
2023/01/06 03:37:51;;;;;;;1999.90;999.90;;;;;;;6.21;100.00;94524.00;5094699;28;20198;-60
2023/01/06 03:40:31;;;;;;;1999.90;999.90;;;;;;;6.18;100.00;94525.59;5096193;28;20205;-59
2023/01/06 03:43:11;;;;;;;1999.90;999.90;;;;;;;6.16;100.00;94521.72;5096997;28;20199;-60
2023/01/06 03:45:52;;;;;;;1999.90;999.90;;;;;;;6.12;100.00;94521.75;5095544;28;20185;-59
2023/01/06 03:48:55;;;;;;;1999.90;999.90;;;;;;;6.12;100.00;94504.72;5095833;28;20227;-59
2023/01/06 03:51:20;;;;;;;1999.90;999.90;;;;;;;6.08;100.00;94510.16;5095598;28;20176;-65
2023/01/06 03:53:56;;;;;;;1999.90;999.90;;;;;;;6.05;100.00;94508.22;5096439;28;20202;-66
2023/01/06 03:56:27;;;;;;;1999.90;999.90;;;;;;;6.04;100.00;94508.63;5095726;28;20203;-66
2023/01/06 03:58:57;;;;;;;1999.90;999.90;;;;;;;5.96;100.00;94512.53;5096107;28;20261;-67
2023/01/06 04:01:25;;;;;;;1999.90;999.90;;;;;;;5.97;100.00;94514.06;5095321;28;20168;-66
2023/01/06 04:03:54;;;;;;;1999.90;999.90;;;;;;;5.95;100.00;94498.25;5095767;28;20243;-66
2023/01/06 04:06:20;;;;;;;1999.90;999.90;;;;;;;5.93;100.00;94497.06;5095362;28;20270;-66
2023/01/06 04:08:46;;;;;;;1999.90;999.90;;;;;;;5.88;100.00;94505.63;5095331;28;20196;-71
2023/01/06 04:12:37;;;;;;;1999.90;999.90;;;;;;;5.84;100.00;94504.88;5095496;28;20179;-61
2023/01/06 04:13:56;;;;;;;1999.90;999.90;;;;;;;5.77;100.00;94504.88;5095735;28;20201;-61
2023/01/06 04:16:22;;;;;;;1999.90;999.90;;;;;;;5.76;100.00;94508.75;5095772;28;20175;-61
2023/01/06 04:18:47;;;;;;;1999.90;999.90;;;;;;;5.72;100.00;94502.56;5095859;28;20170;-61
2023/01/06 04:21:13;;;;;;;1999.90;999.90;;;;;;;5.69;100.00;94500.66;5095163;28;20185;-61
2023/01/06 04:23:38;;;;;;;1999.90;999.90;;;;;;;5.67;100.00;94500.25;5094867;28;20261;-60
2023/01/06 04:26:04;;;;;;;1999.90;999.90;;;;;;;5.63;100.00;94500.28;5094958;28;20254;-61
2023/01/06 04:28:29;;;;;;;1999.90;999.90;;;;;;;5.62;100.00;94506.88;5095130;28;20170;-61
2023/01/06 04:30:59;;;;;;;1999.90;999.90;;;;;;;5.58;100.00;94508.81;5094709;28;20253;-60
2023/01/06 04:33:24;;;;;;;1999.90;999.90;;;;;;;5.56;100.00;94510.38;5094749;28;20206;-59
2023/01/06 04:35:50;;;;;;;1999.90;999.90;;;;;;;5.53;100.00;94503.03;5095269;28;20250;-59
2023/01/06 04:38:15;;;;;;;1999.90;999.90;;;;;;;5.50;100.00;94506.53;5095111;28;20182;-60
2023/01/06 04:40:42;;;;;;;1999.90;999.90;;;;;;;5.45;100.00;94499.59;5095090;28;20171;-59
2023/01/06 04:43:12;;;;;;;1999.90;999.90;;;;;;;5.47;100.00;94501.91;5095055;28;20181;-59
2023/01/06 04:45:39;;;;;;;1999.90;999.90;;;;;;;5.44;100.00;94498.03;5094508;28;20181;-59
2023/01/06 04:48:04;;;;;;;1999.90;999.90;;;;;;;5.39;100.00;94503.09;5094576;28;20173;-60
2023/01/06 04:50:30;;;;;;;1999.90;999.90;;;;;;;5.35;100.00;94505.03;5094570;28;20258;-60
2023/01/06 04:52:55;;;;;;;1999.90;999.90;;;;;;;5.33;100.00;94513.56;5095267;28;20233;-60
2023/01/06 04:55:20;;;;;;;1999.90;999.90;;;;;;;5.30;100.00;94502.72;5094564;28;20203;-60
2023/01/06 04:57:46;;;;;;;1999.90;999.90;;;;;;;5.25;100.00;94500.44;5094705;28;20180;-60
2023/01/06 05:00:12;;;;;;;1999.90;999.90;;;;;;;5.21;100.00;94505.06;5095296;28;20173;-60
2023/01/06 05:02:37;;;;;;;1999.90;999.90;;;;;;;5.20;100.00;94508.94;5094534;28;20687;-65
2023/01/06 05:05:03;;;;;;;1999.90;999.90;;;;;;;5.18;100.00;94505.84;5094383;28;20224;-61
2023/01/06 05:07:28;;;;;;;1999.90;999.90;;;;;;;5.11;100.00;94500.44;5094722;28;20173;-60
2023/01/06 05:09:53;;;;;;;1999.90;999.90;;;;;;;5.06;100.00;94509.72;5094766;28;20333;-64
2023/01/06 05:12:19;;;;;;;1999.90;999.90;;;;;;;5.03;100.00;94509.75;5094085;28;20197;-60
2023/01/06 05:14:44;;;;;;;1999.90;999.90;;;;;;;4.98;100.00;94507.41;5094414;28;20235;-60
2023/01/06 05:17:09;;;;;;;1999.90;999.90;;;;;;;4.96;100.00;94515.94;5093902;28;20169;-60
2023/01/06 05:19:35;;;;;;;1999.90;999.90;;;;;;;4.94;100.00;94529.06;5094057;28;20169;-60
2023/01/06 05:22:00;;;;;;;1999.90;999.90;;;;;;;4.88;100.00;94519.81;5094457;28;20181;-60
2023/01/06 05:24:25;;;;;;;1999.90;999.90;;;;;;;4.86;100.00;94524.84;5094108;28;20170;-62
2023/01/06 05:26:51;;;;;;;1999.90;999.90;;;;;;;4.85;100.00;94519.81;5094500;28;20180;-63
2023/01/06 05:29:16;;;;;;;1999.90;999.90;;;;;;;4.84;100.00;94531.81;5094285;28;20169;-63
2023/01/06 05:31:42;;;;;;;1999.90;999.90;;;;;;;4.77;100.00;94527.16;5093768;28;20220;-63
2023/01/06 05:34:09;;;;;;;1999.90;999.90;;;;;;;4.76;100.00;94527.53;5093739;28;20244;-63
2023/01/06 05:36:34;;;;;;;1999.90;999.90;;;;;;;4.73;100.00;94533.75;5093863;28;20173;-63
2023/01/06 05:38:59;;;;;;;1999.90;999.90;;;;;;;4.70;100.00;94529.09;5094234;28;20184;-63
2023/01/06 05:41:25;;;;;;;1999.90;999.90;;;;;;;4.69;100.00;94527.53;5093314;28;20169;-60
2023/01/06 05:43:50;;;;;;;1999.90;999.90;;;;;;;4.68;100.00;94534.09;5093804;28;20236;-60
2023/01/06 05:46:15;;;;;;;1999.90;999.90;;;;;;;4.63;100.00;94534.50;5093903;28;20177;-60
2023/01/06 05:48:41;;;;;;;1999.90;999.90;;;;;;;4.60;100.00;94529.88;5094022;28;20179;-60
2023/01/06 05:51:09;;;;;;;1999.90;999.90;;;;;;;4.63;100.00;94524.44;5093471;28;20178;-60
2023/01/06 05:53:37;;;;;;;1999.90;999.90;;;;;;;4.58;100.00;94524.84;5094255;28;20196;-60
2023/01/06 05:56:04;;;;;;;1999.90;999.90;;;;;;;4.62;100.00;94527.56;5093415;28;20176;-60
2023/01/06 05:58:32;;;;;;;1999.90;999.90;;;;;;;4.58;100.00;94522.13;5093536;28;20213;-60
2023/01/06 06:00:58;;;;;;;1999.90;999.90;;;;;;;4.52;100.00;94522.91;5093728;28;20204;-66
2023/01/06 06:03:23;;;;;;;1999.90;999.90;;;;;;;4.54;100.00;94523.28;5093058;28;20180;-66
2023/01/06 06:05:49;;;;;;;1999.90;999.90;;;;;;;4.55;100.00;94522.16;5093427;28;20192;-66
2023/01/06 06:08:14;;;;;;;1999.90;999.90;;;;;;;4.55;100.00;94522.16;5093343;28;20204;-66
2023/01/06 06:10:39;;;;;;;1999.90;999.90;;;;;;;4.49;100.00;94524.47;5094120;28;20173;-66
2023/01/06 06:13:05;;;;;;;1999.90;999.90;;;;;;;4.46;100.00;94530.63;5093211;28;20194;-66
2023/01/06 06:15:30;;;;;;;1999.90;999.90;;;;;;;4.44;100.00;94534.88;5093480;28;20210;-67
2023/01/06 06:17:55;;;;;;;1999.90;999.90;;;;;;;4.41;100.00;94530.25;5093713;28;20165;-67
2023/01/06 06:20:21;;;;;;;1999.90;999.90;;;;;;;4.38;100.00;94539.91;5093470;28;20168;-60
2023/01/06 06:22:46;;;;;;;1999.90;999.90;;;;;;;4.37;100.00;94545.69;5093948;28;20168;-60
2023/01/06 06:25:11;;;;;;;1999.90;999.90;;;;;;;4.39;100.00;94540.66;5093175;28;20172;-61
2023/01/06 06:27:37;;;;;;;1999.90;999.90;;;;;;;4.37;100.00;94543.75;5093354;28;20176;-61
2023/01/06 06:30:05;;;;;;;1999.90;999.90;;;;;;;4.37;100.00;94540.28;5093264;28;20172;-61
2023/01/06 06:32:30;;;;;;;1999.90;999.90;;;;;;;4.34;100.00;94535.66;5093299;28;20299;-61
2023/01/06 06:34:56;;;;;;;1999.90;999.90;;;;;;;4.32;100.00;94543.34;5093198;28;20176;-62
2023/01/06 06:37:21;;;;;;;1999.90;999.90;;;;;;;4.36;100.00;94536.00;5093190;28;20237;-60
2023/01/06 06:39:47;;;;;;;1999.90;999.90;;;;;;;4.34;100.00;94538.34;5093770;28;20267;-61
2023/01/06 06:42:12;;;;;;;1999.90;999.90;;;;;;;4.32;100.00;94537.94;5093155;28;20169;-60
2023/01/06 06:44:37;;;;;;;1999.90;999.90;;;;;;;4.31;100.00;94533.69;5093143;28;20169;-60
2023/01/06 06:47:03;;;;;;;1999.90;999.90;;;;;;;4.30;100.00;94548.38;5093564;28;20224;-60
2023/01/06 06:49:28;;;;;;;1999.90;999.90;;;;;;;4.29;100.00;94541.44;5092903;28;20263;-60
2023/01/06 06:51:53;;;;;;;1999.90;999.90;;;;;;;4.27;100.00;94535.63;5094509;28;20198;-60
2023/01/06 06:54:19;;;;;;;1999.90;999.90;;;;;;;4.29;100.00;94536.03;5096710;28;20200;-59
2023/01/06 06:56:44;;;;;;;1999.90;999.90;;;;;;;4.27;100.00;94539.13;5096856;28;20185;-59
2023/01/06 06:59:09;;;;;;;1999.90;999.90;;;;;;;4.22;100.00;94538.72;5097013;28;20196;-60
2023/01/06 07:01:35;;;;;;;1999.90;999.90;;;;;;;4.20;100.00;94549.13;5096266;28;20172;-59
2023/01/06 07:04:00;;;;;;;1999.90;999.90;;;;;;;4.21;100.00;94550.66;5096396;28;20188;-59
2023/01/06 07:06:30;;;;;;;1999.90;999.90;;;;;;;4.21;100.00;94551.44;5096646;28;20219;-59
2023/01/06 07:08:55;;;;;;;1999.90;999.90;;;;;;;4.22;100.00;94546.81;5096837;28;20268;-59
2023/01/06 07:11:21;;;;;;;1999.90;999.90;;;;;;;4.30;100.00;94540.28;5096512;28;20246;-59
2023/01/06 07:13:47;;;;;;;1999.90;999.90;;;;;;;4.41;100.00;94544.50;5096195;28;20197;-61
2023/01/06 07:16:12;;;;;;;1999.90;999.90;;;;;;;4.55;100.00;94532.97;5096457;28;20176;-60
2023/01/06 07:18:38;;;;;;;1999.90;999.90;;;;;;;4.63;100.00;94545.31;5095955;28;20165;-61
2023/01/06 07:21:04;;;;;;;1999.90;999.90;;;;;;;4.68;100.00;94542.22;5096276;28;20172;-60
2023/01/06 07:23:30;;;;;;;1999.90;999.90;;;;;;;4.82;100.00;94539.53;5096932;28;20172;-61
2023/01/06 07:25:58;;;;;;;1999.90;999.90;;;;;;;4.97;100.00;94539.13;5096681;28;20176;-60
2023/01/06 07:28:24;;;;;;;1999.90;999.90;;;;;;;5.06;100.00;94549.56;5096646;28;20215;-61
2023/01/06 07:30:50;;;;;;;1999.90;999.90;;;;;;;5.09;100.00;94554.16;5095983;28;20217;-59
2023/01/06 07:33:16;;;;;;;1999.90;999.90;;;;;;;5.13;100.00;94563.06;5095856;28;20197;-70
2023/01/06 07:35:42;;;;;;;1999.90;999.90;;;;;;;5.18;100.00;94562.69;5096138;28;20191;-69
2023/01/06 07:38:08;;;;;;;1999.90;999.90;;;;;;;5.22;100.00;94582.38;5095486;28;20178;-67
2023/01/06 07:40:34;;;;;;;1999.90;999.90;;;;;;;5.33;100.00;94588.56;5096070;28;20184;-68
2023/01/06 07:43:08;;;;;;;1999.90;999.90;;;;;;;5.51;100.00;94594.72;5095952;28;20187;-72
2023/01/06 07:45:34;;;;;;;1999.90;999.90;;;;;;;5.70;100.00;94602.38;5095690;28;20175;-71
2023/01/06 07:48:00;;;;;;;1999.90;999.90;;;;;;;5.99;100.00;94606.59;5095573;28;20177;-70
2023/01/06 07:50:26;;;;;;;1999.90;999.90;;;;;;;6.18;100.00;94619.66;5095867;28;20237;-75
2023/01/06 07:52:52;;;;;;;1999.90;999.90;;;;;;;6.59;100.00;94626.03;5095660;28;20235;-63
2023/01/06 07:55:17;;;;;;;1999.90;999.90;;;;;;;7.16;100.00;94638.06;5095484;28;20196;-63
2023/01/06 07:57:43;;;;;;;1999.90;999.90;;;;;;;7.86;100.00;94666.56;5095595;28;20180;-64
2023/01/06 08:00:09;;;;;;;1999.90;999.90;;;;;;;8.30;100.00;94738.00;5095510;28;20183;-63
2023/01/06 08:02:34;;;;;;;1999.90;999.90;;;;;;;8.76;100.00;94824.59;5095312;28;20223;-63
2023/01/06 08:04:59;;;;;;;1999.90;999.90;;;;;;;9.00;100.00;94943.38;5095547;28;20200;-63
2023/01/06 08:07:25;;;;;;;1999.90;999.90;;;;;;;9.14;100.00;95140.09;5095306;28;20319;-60
2023/01/06 08:09:50;;;;;;;1999.90;999.90;;;;;;;9.49;100.00;95284.31;5095280;28;20172;-60
2023/01/06 08:12:16;;;;;;;1999.90;999.90;;;;;;;9.45;100.00;95419.84;5095056;28;20242;-63
2023/01/06 08:14:41;;;;;;;1999.90;999.90;;;;;;;9.44;100.00;95532.72;5095216;28;20182;-63
2023/01/06 08:17:06;;;;;;;1999.90;999.90;;;;;;;9.54;100.00;95594.63;5095970;28;20253;-62
2023/01/06 08:19:32;;;;;;;1999.90;999.90;;;;;;;9.68;100.00;95651.88;5095550;28;20271;-64
2023/01/06 08:21:57;;;;;;;1999.90;999.90;;;;;;;9.75;100.00;95697.44;5095039;28;20179;-64
2023/01/06 08:24:23;;;;;;;1999.90;999.90;;;;;;;9.76;100.00;95729.78;5095320;28;20253;-62
2023/01/06 08:26:48;;;;;;;1999.90;999.90;;;;;;;9.78;100.00;95752.00;5095773;28;20219;-60
2023/01/06 08:29:13;;;;;;;1999.90;999.90;;;;;;;10.18;100.00;95760.97;5094894;28;20202;-62
2023/01/06 08:31:39;;;;;;;1999.90;999.90;;;;;;;10.74;100.00;95769.09;5095149;28;20226;-62
2023/01/06 08:34:04;;;;;;;1999.90;999.90;;;;;;;11.10;100.00;95775.97;5094988;28;20207;-62
2023/01/06 08:36:30;;;;;;;1999.90;999.90;;;;;;;11.37;100.00;95801.66;5094834;28;20173;-61
2023/01/06 08:38:55;;;;;;;1999.90;999.90;;;;;;;11.60;100.00;95801.91;5094624;28;20172;-62
2023/01/06 08:41:21;;;;;;;1999.90;999.90;;;;;;;11.99;100.00;95805.22;5095453;28;20187;-62
2023/01/06 08:43:46;;;;;;;1999.90;999.90;;;;;;;12.27;100.00;95805.78;5094700;28;20236;-58
2023/01/06 08:46:15;;;;;;;1999.90;999.90;;;;;;;12.36;100.00;95802.56;5095046;28;20207;-73
2023/01/06 08:48:41;;;;;;;1999.90;999.90;;;;;;;12.42;100.00;95811.94;5095211;28;20168;-70
2023/01/06 08:51:19;;;;;;;1999.90;999.90;;;;;;;12.50;100.00;95808.69;5094742;28;20232;-73
2023/01/06 08:53:46;;;;;;;1999.90;999.90;;;;;;;12.84;100.00;95817.00;5095127;28;20196;-74
2023/01/06 08:56:13;;;;;;;1999.90;999.90;;;;;;;13.12;100.00;95816.75;5094222;28;20200;-72
2023/01/06 08:58:39;;;;;;;1999.90;999.90;;;;;;;13.86;100.00;95816.56;5094577;28;20173;-72
2023/01/06 09:01:04;;;;;;;1999.90;999.90;;;;;;;14.28;100.00;95821.47;5095049;28;20198;-72
2023/01/06 09:03:29;;;;;;;1999.90;999.90;;;;;;;14.28;100.00;95821.47;5094230;28;20176;-61
2023/01/06 09:05:56;;;;;;;1999.90;999.90;;;;;;;14.90;100.00;95829.84;5093835;28;20176;-61
2023/01/06 09:08:23;;;;;;;1999.90;999.90;;;;;;;14.84;100.00;95839.00;5094199;28;20172;-60
2023/01/06 09:10:48;;;;;;;1999.90;999.90;;;;;;;14.65;100.00;95835.00;5094173;28;20173;-61
2023/01/06 09:13:14;;;;;;;1999.90;999.90;;;;;;;15.26;100.00;95841.75;5094488;28;20196;-62
2023/01/06 09:15:41;;;;;;;1999.90;999.90;;;;;;;15.55;100.00;95837.28;5093847;28;20240;-62
2023/01/06 09:18:09;;;;;;;1999.90;999.90;;;;;;;16.17;100.00;95839.88;5094562;28;20167;-61
2023/01/06 09:20:36;;;;;;;1999.90;999.90;;;;;;;16.42;100.00;95842.88;5093752;28;20219;-62
2023/01/06 09:23:02;;;;;;;1999.90;999.90;;;;;;;16.71;100.00;95847.72;5093928;28;20173;-63
2023/01/06 09:25:27;;;;;;;1999.90;999.90;;;;;;;16.75;100.00;95846.41;5093995;28;20204;-61
2023/01/06 09:27:53;;;;;;;1999.90;999.90;;;;;;;16.20;100.00;95854.75;5093925;28;20172;-63
2023/01/06 09:30:18;;;;;;;1999.90;999.90;;;;;;;16.44;100.00;95854.22;5093589;28;20221;-62
2023/01/06 09:32:43;;;;;;;1999.90;999.90;;;;;;;17.16;100.00;95859.56;5093831;28;20196;-61
2023/01/06 09:35:10;;;;;;;1999.90;999.90;;;;;;;17.08;100.00;95856.19;5093565;28;20204;-61
2023/01/06 09:37:35;;;;;;;1999.90;999.90;;;;;;;17.19;100.00;95861.44;5094657;28;20187;-61
2023/01/06 09:40:01;;;;;;;1999.90;999.90;;;;;;;17.21;100.00;95870.06;5094199;28;20204;-63
2023/01/06 09:42:33;;;;;;;1999.90;999.90;;;;;;;16.59;100.00;95873.19;5093550;28;20203;-62
2023/01/06 09:45:15;;;;;;;1999.90;999.90;;;;;;;16.88;100.00;95876.81;5094138;28;20180;-62
2023/01/06 09:47:50;;;;;;;1999.90;999.90;;;;;;;17.11;100.00;95884.94;5093855;28;20173;-61
2023/01/06 09:50:37;;;;;;;1999.90;999.90;;;;;;;16.94;100.00;95878.66;5093870;28;20180;-61
2023/01/06 09:53:10;;;;;;;1999.90;999.90;;;;;;;16.92;100.00;95878.28;5093932;28;20204;-62
2023/01/06 09:55:46;;;;;;;1999.90;999.90;;;;;;;17.18;100.00;95884.72;5094343;28;20168;-61
2023/01/06 09:58:23;;;;;;;1999.90;999.90;;;;;;;17.24;100.00;95885.75;5094372;28;20174;-62
2023/01/06 10:00:54;;;;;;;1999.90;999.90;;;;;;;17.08;100.00;95883.03;5093812;28;20172;-60
2023/01/06 10:03:24;;;;;;;1999.90;999.90;;;;;;;17.19;100.00;95880.78;5094067;28;20168;-63
2023/01/06 10:06:04;;;;;;;1999.90;999.90;;;;;;;17.62;100.00;95881.19;5093097;28;20230;-62
2023/01/06 10:09:00;;;;;;;1999.90;999.90;;;;;;;17.69;100.00;95872.72;5093677;28;20218;-62
2023/01/06 10:12:10;;;;;;;1999.90;999.90;;;;;;;17.45;100.00;95876.97;5093555;28;20177;-62
2023/01/06 10:14:51;;;;;;;1999.90;999.90;;;;;;;17.08;100.00;95866.47;5091859;28;20287;-62
2023/01/06 10:17:48;;;;;;;1999.90;999.90;;;;;;;16.64;100.00;95872.69;5093851;28;20176;-60
2023/01/06 10:20:35;;;;;;;1999.90;999.90;;;;;;;16.49;100.00;95865.97;5093988;28;20175;-64
2023/01/06 10:23:00;;;;;;;1999.90;999.90;;;;;;;16.60;100.00;95866.50;5093139;28;20187;-62
2023/01/06 10:25:33;;;;;;;1999.90;999.90;;;;;;;16.85;100.00;95861.13;5093872;28;20259;-61
2023/01/06 10:28:04;;;;;;;1999.90;999.90;;;;;;;16.34;100.00;95857.22;5098032;28;20174;-62
2023/01/06 10:30:43;;;;;;;1999.90;999.90;;;;;;;15.72;100.00;95855.41;5097085;28;20276;-63
2023/01/06 10:33:22;;;;;;;1999.90;999.90;;;;;;;16.13;100.00;95850.19;5097536;28;20208;-62
2023/01/06 10:35:47;;;;;;;1999.90;999.90;;;;;;;16.00;100.00;95846.53;5097799;28;20233;-73
2023/01/06 10:38:14;;;;;;;1999.90;999.90;;;;;;;15.73;100.00;95850.66;5097874;28;20169;-64
2023/01/06 10:40:39;;;;;;;1999.90;999.90;;;;;;;15.34;100.00;95837.66;5097616;28;20295;-63
2023/01/06 10:43:09;;;;;;;1999.90;999.90;;;;;;;15.21;100.00;95838.72;5096747;28;20200;-64
2023/01/06 10:45:38;;;;;;;1999.90;999.90;;;;;;;14.65;100.00;95846.00;5097236;28;20228;-65
2023/01/06 10:48:09;;;;;;;1999.90;999.90;;;;;;;14.32;100.00;95852.44;5096945;28;20164;-64
2023/01/06 10:50:35;;;;;;;1999.90;999.90;;;;;;;14.21;100.00;95838.03;5097363;28;20176;-64
2023/01/06 10:53:01;;;;;;;1999.90;999.90;;;;;;;13.92;100.00;95842.38;5096614;28;20197;-64
2023/01/06 10:55:30;;;;;;;1999.90;999.90;;;;;;;13.33;100.00;95843.91;5096802;28;20186;-61
2023/01/06 10:58:02;;;;;;;1999.90;999.90;;;;;;;13.18;100.00;95850.75;5096551;28;20179;-65
2023/01/06 11:00:28;;;;;;;1999.90;999.90;;;;;;;13.12;100.00;95855.13;5097025;28;20234;-63